< < Back
Terminal Aerodrome Forecast


Current Version              Previous Versions:   1  2  3  4  5  6  7  8  9  

Terminal Aerodrome Forecast

361
FTAK31 PAJN 261722
TAFAHN
TAF
PAHN 261722Z 2618/2718 11010KT P6SM -RA BKN010 OVC025
     FM262300 10012KT P6SM VCSH SCT010 OVC035
     FM270600 09006KT P6SM -RA OVC025
     FM271300 08006KT P6SM VCSH OVC025
      AMD LTD TO CLD VIS AND WIND=

Latest METAR

423
SAUS70 KWBC 261954
MTRAHN
METAR KAHN 261951Z 06006KT 10SM SCT060 33/21 A3011 RMK AO2 SLP188
T03280206


USA.gov is the U.S. government's official web portal to all federal, state and local government web resources and services.